createdAt,value
2019-04-28T00:00:41.169Z,1.60
2019-04-28T00:03:07.516Z,1.20
2019-04-28T00:05:33.737Z,1.30
2019-04-28T00:08:01.163Z,1.10
2019-04-28T00:10:27.811Z,1.30
2019-04-28T00:12:54.064Z,1.57
2019-04-28T00:15:20.883Z,1.30
2019-04-28T00:17:47.160Z,1.03
2019-04-28T00:20:18.316Z,1.27
2019-04-28T00:23:04.177Z,1.30
2019-04-28T00:25:33.061Z,1.10
2019-04-28T00:27:59.353Z,0.93
2019-04-28T00:30:25.698Z,0.93
2019-04-28T00:32:51.957Z,1.13
2019-04-28T00:35:18.182Z,1.10
2019-04-28T00:37:44.422Z,1.10
2019-04-28T00:40:31.639Z,1.00
2019-04-28T00:42:57.970Z,1.10
2019-04-28T00:45:24.245Z,1.20
2019-04-28T00:47:51.107Z,1.60
2019-04-28T00:50:17.483Z,1.10
2019-04-28T00:52:43.735Z,0.93
2019-04-28T00:55:11.035Z,0.90
2019-04-28T00:57:37.316Z,1.40
2019-04-28T01:00:06.284Z,0.90
2019-04-28T01:02:41.323Z,1.10
2019-04-28T01:05:27.578Z,1.20
2019-04-28T01:07:53.814Z,1.10
2019-04-28T01:10:41.854Z,0.90
2019-04-28T01:13:08.637Z,1.00
2019-04-28T01:15:45.781Z,1.20
2019-04-28T01:18:25.697Z,1.30
2019-04-28T01:20:52.114Z,1.50
2019-04-28T01:23:20.267Z,1.20
2019-04-28T01:25:46.498Z,1.50
2019-04-28T01:28:12.735Z,1.40
2019-04-28T01:30:43.719Z,1.30
2019-04-28T01:33:29.490Z,1.57
2019-04-28T01:35:55.961Z,1.27
2019-04-28T01:38:22.199Z,1.20
2019-04-28T01:40:49.955Z,1.13
2019-04-28T01:43:16.423Z,1.37
2019-04-28T01:45:42.650Z,1.30
2019-04-28T01:48:10.041Z,1.40
2019-04-28T01:50:36.419Z,1.50
2019-04-28T01:53:02.668Z,1.30
2019-04-28T01:55:29.618Z,1.33
2019-04-28T01:57:56.060Z,1.20
2019-04-28T02:00:25.441Z,1.50
2019-04-28T02:02:50.853Z,1.70
2019-04-28T02:05:17.282Z,1.03
2019-04-28T02:07:43.520Z,1.20
2019-04-28T02:10:10.483Z,1.40
2019-04-28T02:12:36.787Z,1.13
2019-04-28T02:15:07.679Z,1.30
2019-04-28T02:17:33.919Z,1.23
2019-04-28T02:20:00.775Z,1.17
2019-04-28T02:22:31.775Z,1.10
2019-04-28T02:24:58.148Z,1.27
2019-04-28T02:27:24.634Z,0.90
2019-04-28T02:29:50.884Z,1.10
2019-04-28T02:32:20.688Z,1.23
2019-04-28T02:34:45.564Z,1.20
2019-04-28T02:37:11.780Z,1.10
2019-04-28T02:39:40.640Z,1.13
2019-04-28T02:42:06.264Z,1.10
2019-04-28T02:44:35.085Z,1.00
2019-04-28T02:47:01.110Z,0.90
2019-04-28T02:49:32.131Z,0.93
2019-04-28T02:52:03.317Z,1.13
2019-04-28T02:54:30.490Z,0.90
2019-04-28T02:56:56.829Z,1.10
2019-04-28T02:59:23.058Z,0.80
2019-04-28T03:01:50.884Z,1.37
2019-04-28T03:04:20.129Z,0.80
2019-04-28T03:06:47.690Z,1.07
2019-04-28T03:09:13.927Z,0.87
2019-04-28T03:11:41.080Z,0.97
2019-04-28T03:14:11.057Z,0.90
2019-04-28T03:16:36.472Z,0.70
2019-04-28T03:19:02.981Z,0.80
2019-04-28T03:21:31.275Z,0.80
2019-04-28T03:23:57.587Z,1.00
2019-04-28T03:26:25.710Z,0.90
2019-04-28T03:29:10.798Z,1.87
2019-04-28T03:32:14.929Z,0.83
2019-04-28T03:34:13.373Z,1.07
2019-04-28T03:36:40.846Z,0.80
2019-04-28T03:39:07.441Z,0.83
2019-04-28T03:41:33.682Z,0.90
2019-04-28T03:44:00.585Z,1.23
2019-04-28T03:46:30.431Z,0.90
2019-04-28T03:48:56.870Z,0.80
2019-04-28T03:51:25.061Z,1.00
2019-04-28T03:53:51.599Z,0.90
2019-04-28T03:56:17.874Z,1.13
2019-04-28T03:58:44.113Z,1.13
2019-04-28T04:01:10.920Z,0.90
2019-04-28T04:03:37.372Z,1.20
2019-04-28T04:06:03.711Z,0.93
2019-04-28T04:08:30.986Z,1.03
2019-04-28T04:11:12.064Z,1.17
2019-04-28T04:13:41.560Z,0.90
2019-04-28T04:16:12.673Z,1.00
2019-04-28T04:18:40.977Z,1.30
2019-04-28T04:21:07.287Z,1.00
2019-04-28T04:23:33.554Z,0.97
2019-04-28T04:26:01.603Z,1.00
2019-04-28T04:28:30.265Z,1.20
2019-04-28T04:30:56.069Z,1.03
2019-04-28T04:33:22.312Z,1.30
2019-04-28T04:35:51.015Z,1.10
2019-04-28T04:38:17.930Z,1.30
2019-04-28T04:40:44.180Z,1.20
2019-04-28T04:43:11.256Z,1.00
2019-04-28T04:45:40.276Z,1.13
2019-04-28T04:48:05.783Z,1.00
2019-04-28T04:50:32.022Z,1.00
2019-04-28T04:52:58.257Z,1.37
2019-04-28T04:55:24.506Z,1.20
2019-04-28T04:57:50.806Z,1.00
2019-04-28T05:00:34.139Z,1.00
2019-04-28T05:03:07.962Z,1.30
2019-04-28T05:05:40.362Z,1.00
2019-04-28T05:08:06.716Z,1.07
2019-04-28T05:10:32.940Z,1.50
2019-04-28T05:13:00.246Z,1.60
2019-04-28T05:15:26.552Z,1.40
2019-04-28T05:17:52.846Z,1.00
2019-04-28T05:20:20.141Z,1.50
2019-04-28T05:22:50.254Z,1.00
2019-04-28T05:25:20.301Z,2.10
2019-04-28T05:27:46.581Z,1.90
2019-04-28T05:30:14.109Z,1.43
2019-04-28T05:32:45.549Z,1.10
2019-04-28T05:35:10.229Z,1.10
2019-04-28T05:37:36.906Z,1.50
2019-04-28T05:40:04.660Z,1.47
2019-04-28T05:42:30.911Z,1.50
2019-04-28T05:44:57.143Z,1.50
2019-04-28T05:47:23.409Z,1.10
2019-04-28T05:50:03.685Z,2.47
2019-04-28T05:52:31.817Z,1.10
2019-04-28T05:54:59.973Z,1.43
2019-04-28T05:57:28.128Z,1.30
2019-04-28T06:00:01.165Z,1.10
2019-04-28T06:02:32.081Z,1.23
2019-04-28T06:04:59.928Z,1.30
2019-04-28T06:07:28.265Z,1.20
2019-04-28T06:09:55.187Z,1.43
2019-04-28T06:12:21.726Z,1.60
2019-04-28T06:14:47.954Z,1.43
2019-04-28T06:17:16.000Z,1.30
2019-04-28T06:19:42.266Z,1.53
2019-04-28T06:22:08.559Z,1.70
2019-04-28T06:24:34.812Z,1.30
2019-04-28T06:27:01.036Z,1.43
2019-04-28T06:29:27.329Z,1.10
2019-04-28T06:31:53.592Z,1.20
2019-04-28T06:34:19.809Z,1.40
2019-04-28T06:36:46.085Z,1.40
2019-04-28T06:39:12.318Z,1.27
2019-04-28T06:41:38.578Z,1.67
2019-04-28T06:44:04.936Z,1.60
2019-04-28T06:46:31.161Z,1.20
2019-04-28T06:48:57.414Z,1.60
2019-04-28T06:51:23.678Z,1.67
2019-04-28T06:53:49.945Z,2.00
2019-04-28T06:56:16.180Z,1.57
2019-04-28T06:58:42.402Z,1.87
2019-04-28T07:01:08.949Z,1.20
2019-04-28T07:03:35.176Z,1.80
2019-04-28T07:06:01.509Z,1.70
2019-04-28T07:08:27.762Z,2.40
2019-04-28T07:10:54.050Z,1.40
2019-04-28T07:13:20.691Z,1.57
2019-04-28T07:15:47.151Z,1.80
2019-04-28T07:18:13.436Z,1.30
2019-04-28T07:20:41.618Z,1.30
2019-04-28T07:23:09.754Z,1.67
2019-04-28T07:25:35.994Z,1.50
2019-04-28T07:28:02.982Z,1.53
2019-04-28T07:30:29.300Z,1.37
2019-04-28T07:32:55.525Z,1.30
2019-04-28T07:35:21.865Z,1.73
2019-04-28T07:37:48.288Z,1.40
2019-04-28T07:40:14.824Z,2.43
2019-04-28T07:42:41.157Z,1.50
2019-04-28T07:45:07.861Z,1.70
2019-04-28T07:47:34.143Z,1.80
2019-04-28T07:50:00.354Z,1.50
2019-04-28T07:52:28.510Z,1.27
2019-04-28T07:54:54.737Z,1.30
2019-04-28T07:57:20.963Z,1.87
2019-04-28T07:59:47.218Z,1.40
2019-04-28T08:02:16.595Z,1.47
2019-04-28T08:04:42.854Z,2.03
2019-04-28T08:07:09.194Z,1.70
2019-04-28T08:09:35.460Z,1.43
2019-04-28T08:12:01.692Z,1.57
2019-04-28T08:14:27.924Z,1.60
2019-04-28T08:16:54.187Z,1.60
2019-04-28T08:19:20.449Z,4.00
2019-04-28T08:21:46.697Z,2.53
2019-04-28T08:24:13.044Z,2.50
2019-04-28T08:26:39.277Z,1.93
2019-04-28T08:29:05.748Z,3.13
2019-04-28T08:31:41.628Z,2.67
2019-04-28T08:34:10.004Z,2.10
2019-04-28T08:36:36.344Z,1.70
2019-04-28T08:39:05.694Z,1.60
2019-04-28T08:41:32.013Z,1.57
2019-04-28T08:43:58.292Z,2.10
2019-04-28T08:46:25.294Z,2.20
2019-04-28T08:48:51.745Z,1.53
2019-04-28T08:51:17.979Z,1.73
2019-04-28T08:53:44.268Z,1.70
2019-04-28T08:56:11.352Z,1.90
2019-04-28T08:58:37.871Z,1.57
2019-04-28T09:01:04.131Z,1.70
2019-04-28T09:03:30.377Z,2.37
2019-04-28T09:05:56.870Z,1.50
2019-04-28T09:08:23.114Z,1.10
2019-04-28T09:10:49.451Z,1.30
2019-04-28T09:13:32.250Z,1.20
2019-04-28T09:16:04.109Z,1.60
2019-04-28T09:18:30.456Z,1.50
2019-04-28T09:20:56.701Z,1.07
2019-04-28T09:23:22.967Z,1.50
2019-04-28T09:25:49.251Z,1.30
2019-04-28T09:28:15.497Z,1.30
2019-04-28T09:30:41.761Z,1.70
2019-04-28T09:33:08.028Z,1.53
2019-04-28T09:35:34.293Z,1.20
2019-04-28T09:38:00.543Z,1.80
2019-04-28T09:40:26.786Z,1.30
2019-04-28T09:43:03.988Z,1.40
2019-04-28T09:45:32.231Z,1.40
2019-04-28T09:47:58.489Z,1.57
2019-04-28T09:50:24.726Z,1.40
2019-04-28T09:52:51.074Z,1.27
2019-04-28T09:55:17.311Z,1.53
2019-04-28T09:57:43.576Z,1.30
2019-04-28T10:00:10.857Z,1.00
2019-04-28T10:02:37.089Z,1.43
2019-04-28T10:05:07.818Z,1.50
2019-04-28T10:07:34.273Z,1.10
2019-04-28T10:10:00.497Z,1.23
2019-04-28T10:12:27.540Z,1.30
2019-04-28T10:14:53.822Z,1.87
2019-04-28T10:17:20.288Z,1.50
2019-04-28T10:19:46.531Z,1.60
2019-04-28T10:22:12.748Z,1.27
2019-04-28T10:24:39.016Z,1.40
2019-04-28T10:27:06.902Z,1.60
2019-04-28T10:29:33.159Z,1.10
2019-04-28T10:31:59.432Z,1.60
2019-04-28T10:34:25.738Z,2.23
2019-04-28T10:36:51.973Z,1.57
2019-04-28T10:39:29.330Z,1.33
2019-04-28T10:41:55.645Z,1.70
2019-04-28T10:44:22.843Z,1.50
2019-04-28T10:46:49.935Z,1.40
2019-04-28T10:49:16.367Z,1.37
2019-04-28T10:51:42.720Z,1.30
2019-04-28T10:54:10.983Z,1.70
2019-04-28T10:56:37.224Z,1.50
2019-04-28T10:59:03.970Z,1.43
2019-04-28T11:01:30.198Z,1.40
2019-04-28T11:04:04.296Z,1.57
2019-04-28T11:06:30.534Z,1.43
2019-04-28T11:09:04.665Z,1.40
2019-04-28T11:11:31.031Z,1.50
2019-04-28T11:13:57.386Z,1.27
2019-04-28T11:16:25.647Z,1.20
2019-04-28T11:18:52.058Z,1.27
2019-04-28T11:21:18.352Z,1.00
2019-04-28T11:23:44.589Z,1.10
2019-04-28T11:26:10.860Z,1.43
2019-04-28T11:28:37.928Z,1.30
2019-04-28T11:31:04.520Z,1.30
2019-04-28T11:33:41.653Z,1.30
2019-04-28T11:36:08.003Z,1.80
2019-04-28T11:38:34.253Z,1.37
2019-04-28T11:41:00.499Z,1.40
2019-04-28T11:43:26.769Z,1.23
2019-04-28T11:45:53.006Z,1.37
2019-04-28T11:48:19.266Z,1.53
2019-04-28T11:50:45.503Z,1.60
2019-04-28T11:53:11.769Z,1.20
2019-04-28T11:55:38.054Z,1.80
2019-04-28T11:58:04.426Z,1.87
2019-04-28T12:00:32.721Z,1.87
2019-04-28T12:02:58.956Z,1.33
2019-04-28T12:05:34.423Z,1.33
2019-04-28T12:07:55.326Z,1.60
2019-04-28T12:10:23.476Z,1.90
2019-04-28T12:13:03.448Z,1.80
2019-04-28T12:15:31.595Z,1.70
2019-04-28T12:18:05.684Z,1.33
2019-04-28T12:20:31.951Z,1.50
2019-04-28T12:23:00.085Z,1.83
2019-04-28T12:25:26.354Z,1.60
2019-04-28T12:27:52.696Z,1.57
2019-04-28T12:30:18.951Z,1.37
2019-04-28T12:32:45.223Z,1.40
2019-04-28T12:35:11.590Z,1.60
2019-04-28T12:37:37.829Z,1.67
2019-04-28T12:40:05.470Z,1.60
2019-04-28T12:42:31.735Z,1.10
2019-04-28T12:44:57.976Z,1.50
2019-04-28T12:47:24.216Z,1.60
2019-04-28T12:50:02.230Z,1.93
2019-04-28T12:52:28.585Z,1.37
2019-04-28T12:54:54.905Z,1.40
2019-04-28T12:57:21.276Z,1.73
2019-04-28T12:59:49.688Z,1.80
2019-04-28T13:02:35.777Z,1.73
2019-04-28T13:05:05.725Z,2.00
2019-04-28T13:07:32.116Z,1.70
2019-04-28T13:09:58.396Z,1.57
2019-04-28T13:12:24.711Z,1.83
2019-04-28T13:14:51.051Z,2.30
2019-04-28T13:17:37.173Z,1.87
2019-04-28T13:20:04.510Z,2.13
2019-04-28T13:22:30.762Z,1.87
2019-04-28T13:24:57.093Z,1.50
2019-04-28T13:27:23.352Z,1.60
2019-04-28T13:29:49.705Z,2.00
2019-04-28T13:32:15.949Z,2.07
2019-04-28T13:34:45.381Z,2.07
2019-04-28T13:37:11.620Z,1.83
2019-04-28T13:39:48.761Z,4.53
2019-04-28T13:42:15.032Z,6.50
2019-04-28T13:44:49.105Z,9.30
2019-04-28T13:47:15.440Z,5.60
2019-04-28T13:49:49.386Z,2.00
2019-04-28T13:52:15.892Z,2.03
2019-04-28T13:54:42.148Z,1.93
2019-04-28T13:57:08.426Z,1.80
2019-04-28T13:59:34.824Z,1.90
2019-04-28T14:02:03.347Z,1.93
2019-04-28T14:04:31.499Z,1.53
2019-04-28T14:06:58.243Z,1.20
2019-04-28T14:09:24.585Z,1.50
2019-04-28T14:11:50.953Z,1.70
2019-04-28T14:14:17.251Z,1.63
2019-04-28T14:16:43.511Z,1.73
2019-04-28T14:19:09.738Z,1.50
2019-04-28T14:21:35.988Z,1.90
2019-04-28T14:24:02.439Z,2.17
2019-04-28T14:26:28.747Z,1.43
2019-04-28T14:28:55.178Z,1.50
2019-04-28T14:31:21.966Z,1.13
2019-04-28T14:33:48.297Z,1.63
2019-04-28T14:36:14.561Z,5.27
2019-04-28T14:38:43.057Z,17.47
2019-04-28T14:41:15.431Z,7.90
2019-04-28T14:43:41.708Z,2.80
2019-04-28T14:46:07.985Z,1.80
2019-04-28T14:48:34.309Z,2.30
2019-04-28T14:51:00.694Z,1.80
2019-04-28T14:53:27.724Z,3.50
2019-04-28T14:55:54.122Z,8.07
2019-04-28T14:58:20.391Z,5.40
2019-04-28T15:00:48.546Z,3.50
2019-04-28T15:03:16.073Z,9.60
2019-04-28T15:05:53.741Z,8.93
2019-04-28T15:08:27.647Z,7.87
2019-04-28T15:10:55.937Z,6.23
2019-04-28T15:13:23.310Z,11.73
2019-04-28T15:15:49.526Z,8.77
2019-04-28T15:18:15.817Z,7.20
2019-04-28T15:20:42.087Z,11.87
2019-04-28T15:23:08.418Z,11.00
2019-04-28T15:25:34.687Z,5.33
2019-04-28T15:28:01.051Z,3.47
2019-04-28T15:30:27.315Z,6.43
2019-04-28T15:32:53.613Z,6.33
2019-04-28T15:35:19.953Z,13.83
2019-04-28T15:37:52.240Z,12.77
2019-04-28T15:40:18.558Z,7.10
2019-04-28T15:42:44.854Z,4.43
2019-04-28T15:45:11.604Z,2.63
2019-04-28T15:47:37.978Z,2.30
2019-04-28T15:50:05.115Z,2.10
2019-04-28T15:52:31.370Z,1.73
2019-04-28T15:54:57.640Z,2.27
2019-04-28T15:57:23.904Z,1.63
2019-04-28T15:59:50.176Z,2.10
2019-04-28T16:02:16.433Z,1.90
2019-04-28T16:04:43.630Z,2.20
2019-04-28T16:07:10.137Z,1.80
2019-04-28T16:09:36.370Z,2.10
2019-04-28T16:12:02.859Z,1.80
2019-04-28T16:14:29.119Z,1.90
2019-04-28T16:16:55.646Z,1.60
2019-04-28T16:19:21.918Z,1.67
2019-04-28T16:21:48.158Z,1.63
2019-04-28T16:24:15.332Z,1.53
2019-04-28T16:26:41.735Z,1.77
2019-04-28T16:29:09.070Z,1.60
2019-04-28T16:31:36.388Z,1.57
2019-04-28T16:34:03.507Z,2.03
2019-04-28T16:36:32.369Z,1.63
2019-04-28T16:38:59.437Z,2.10
2019-04-28T16:41:29.350Z,1.93
2019-04-28T16:43:56.849Z,2.27
2019-04-28T16:46:23.673Z,2.27
2019-04-28T16:48:49.965Z,2.00
2019-04-28T16:51:25.266Z,2.10
2019-04-28T16:53:51.568Z,1.60
2019-04-28T16:56:20.207Z,2.20
2019-04-28T16:59:01.020Z,2.07
2019-04-28T17:01:46.328Z,2.33
2019-04-28T17:04:28.285Z,2.23
2019-04-28T17:06:59.581Z,2.47
2019-04-28T17:09:27.496Z,1.90
2019-04-28T17:11:55.169Z,2.50
2019-04-28T17:14:22.824Z,2.03
2019-04-28T17:16:50.595Z,2.23
2019-04-28T17:19:18.383Z,2.40
2019-04-28T17:21:46.262Z,2.33
2019-04-28T17:24:14.343Z,2.40
2019-04-28T17:26:42.296Z,2.37
2019-04-28T17:29:10.320Z,2.43
2019-04-28T17:31:38.281Z,1.70
2019-04-28T17:34:06.347Z,1.80
2019-04-28T17:36:34.239Z,1.67
2019-04-28T17:39:02.155Z,1.50
2019-04-28T17:41:30.522Z,1.73
2019-04-28T17:43:58.493Z,1.63
2019-04-28T17:46:26.463Z,1.80
2019-04-28T17:49:03.363Z,2.10
2019-04-28T17:51:31.400Z,1.70
2019-04-28T17:53:59.283Z,1.90
2019-04-28T17:56:27.203Z,2.03
2019-04-28T17:58:55.364Z,2.30
2019-04-28T18:01:33.941Z,1.63
2019-04-28T18:04:20.148Z,1.60
2019-04-28T18:06:50.161Z,1.87
2019-04-28T18:09:18.448Z,1.90
2019-04-28T18:11:46.223Z,1.60
2019-04-28T18:14:14.607Z,2.00
2019-04-28T18:19:44.068Z,2.07
2019-04-28T18:22:12.210Z,2.13
2019-04-28T18:24:40.236Z,1.73
2019-04-28T18:27:08.126Z,1.80
2019-04-28T18:29:36.499Z,1.63
2019-04-28T18:32:09.072Z,1.93
2019-04-28T18:34:50.825Z,2.07
2019-04-28T18:37:38.600Z,1.77
2019-04-28T18:40:11.802Z,1.90
2019-04-28T18:42:59.348Z,2.80
2019-04-28T18:45:27.528Z,3.13
2019-04-28T18:47:55.499Z,5.00
2019-04-28T18:50:23.311Z,4.50
2019-04-28T18:52:52.913Z,5.07
2019-04-28T18:55:20.944Z,2.90
2019-04-28T18:57:48.806Z,2.53
2019-04-28T19:00:20.330Z,2.40
2019-04-28T19:02:48.768Z,2.50
2019-04-28T19:05:17.014Z,1.90
2019-04-28T19:07:49.552Z,1.97
2019-04-28T19:10:25.012Z,2.50
2019-04-28T19:13:13.006Z,3.53
2019-04-28T19:15:48.525Z,1.97
2019-04-28T19:18:33.501Z,1.93
2019-04-28T19:21:01.491Z,2.10
2019-04-28T19:23:29.525Z,2.20
2019-04-28T19:25:57.459Z,2.50
2019-04-28T19:28:25.353Z,2.40
2019-04-28T19:30:53.448Z,2.30
2019-04-28T19:33:21.779Z,2.80
2019-04-28T19:35:49.902Z,2.63
2019-04-28T19:38:18.194Z,2.50
2019-04-28T19:40:46.271Z,2.27
2019-04-28T19:43:14.454Z,2.60
2019-04-28T19:45:44.113Z,2.00
2019-04-28T19:48:12.154Z,1.90
2019-04-28T19:50:42.608Z,1.90
2019-04-28T19:53:10.677Z,2.00
2019-04-28T19:55:42.998Z,2.10
2019-04-28T19:58:15.365Z,2.30
2019-04-28T20:00:54.609Z,2.03
2019-04-28T20:03:22.807Z,2.00
2019-04-28T20:05:54.844Z,2.77
2019-04-28T20:08:22.876Z,2.30
2019-04-28T20:10:50.999Z,2.03
2019-04-28T20:13:18.895Z,2.17
2019-04-28T20:15:46.789Z,2.00
2019-04-28T20:18:14.788Z,2.23
2019-04-28T20:20:45.123Z,2.00
2019-04-28T20:23:14.580Z,2.20
2019-04-28T20:25:43.674Z,2.50
2019-04-28T20:28:11.906Z,2.30
2019-04-28T20:30:39.856Z,2.47
2019-04-28T20:33:08.004Z,2.07
2019-04-28T20:35:46.559Z,2.03
2019-04-28T20:38:16.475Z,2.23
2019-04-28T20:40:55.023Z,2.37
2019-04-28T20:43:24.010Z,2.23
2019-04-28T20:45:51.128Z,2.10
2019-04-28T20:48:17.861Z,1.90
2019-04-28T20:50:44.792Z,1.83
2019-04-28T20:53:11.521Z,1.90
2019-04-28T20:58:26.266Z,1.93
2019-04-28T21:00:52.677Z,2.27
2019-04-28T21:03:18.968Z,2.10
2019-04-28T21:05:45.229Z,2.27
2019-04-28T21:08:11.557Z,2.10
2019-04-28T21:10:38.608Z,3.13
2019-04-28T21:13:05.060Z,2.17
2019-04-28T21:15:31.304Z,2.43
2019-04-28T21:17:57.702Z,2.10
2019-04-28T21:20:23.912Z,2.20
2019-04-28T21:22:50.183Z,2.10
2019-04-28T21:25:16.454Z,2.07
2019-04-28T21:27:42.743Z,2.00
2019-04-28T21:30:10.023Z,2.03
2019-04-28T21:32:36.453Z,2.30
2019-04-28T21:35:03.804Z,2.23
2019-04-28T21:37:30.125Z,1.80
2019-04-28T21:39:56.385Z,2.37
2019-04-28T21:42:24.529Z,2.23
2019-04-28T21:45:04.686Z,1.87
2019-04-28T21:47:32.935Z,2.30
2019-04-28T21:49:59.256Z,2.73
2019-04-28T21:52:25.555Z,2.70
2019-04-28T21:54:51.925Z,2.00
2019-04-28T21:57:18.176Z,2.10
2019-04-28T21:59:44.418Z,2.47
2019-04-28T22:02:10.919Z,2.03
2019-04-28T22:04:37.303Z,2.13
2019-04-28T22:07:04.178Z,2.10
2019-04-28T22:09:30.436Z,2.60
2019-04-28T22:11:56.682Z,2.07
2019-04-28T22:14:22.959Z,2.20
2019-04-28T22:16:49.205Z,1.87
2019-04-28T22:19:15.652Z,2.07
2019-04-28T22:21:41.935Z,1.87
2019-04-28T22:24:16.033Z,2.40
2019-04-28T22:26:43.706Z,1.80
2019-04-28T22:29:11.236Z,2.03
2019-04-28T22:31:37.517Z,2.20
2019-04-28T22:34:04.942Z,2.10
2019-04-28T22:36:31.233Z,2.27
2019-04-28T22:38:57.518Z,2.43
2019-04-28T22:41:23.751Z,2.40
2019-04-28T22:43:50.038Z,2.23
2019-04-28T22:46:16.276Z,2.17
2019-04-28T22:48:42.540Z,2.40
2019-04-28T22:51:08.791Z,2.20
2019-04-28T22:53:36.967Z,2.07
2019-04-28T22:56:23.075Z,2.50
2019-04-28T22:59:06.198Z,2.20
2019-04-28T23:01:34.363Z,2.00
2019-04-28T23:04:08.423Z,2.00
2019-04-28T23:06:34.880Z,2.30
2019-04-28T23:09:01.293Z,2.00
2019-04-28T23:11:27.850Z,2.47
2019-04-28T23:13:54.199Z,1.97
2019-04-28T23:16:20.748Z,1.87
2019-04-28T23:18:47.197Z,2.10
2019-04-28T23:21:31.971Z,2.07
2019-04-28T23:23:58.221Z,1.73
2019-04-28T23:26:24.480Z,1.90
2019-04-28T23:28:50.835Z,2.60
2019-04-28T23:31:17.057Z,2.20
2019-04-28T23:33:43.499Z,1.50
2019-04-28T23:36:09.770Z,1.80
2019-04-28T23:38:36.018Z,2.23
2019-04-28T23:41:04.398Z,2.00
2019-04-28T23:43:30.651Z,3.00
2019-04-28T23:45:56.930Z,2.17
2019-04-28T23:48:23.170Z,1.90
2019-04-28T23:51:08.045Z,2.00
2019-04-28T23:53:52.788Z,2.17
2019-04-28T23:56:19.042Z,2.30
2019-04-28T23:58:45.415Z,2.27
